sensor_id;sensor_type;location;lat;lon;timestamp;temperature;humidity
8676;DHT22;4375;52.486;13.424;2023-02-16T00:00:31;4.10;99.90
8676;DHT22;4375;52.486;13.424;2023-02-16T00:02:57;4.10;99.90
8676;DHT22;4375;52.486;13.424;2023-02-16T00:05:29;4.00;99.90
8676;DHT22;4375;52.486;13.424;2023-02-16T00:07:56;4.00;99.90
8676;DHT22;4375;52.486;13.424;2023-02-16T00:10:23;3.90;99.90
8676;DHT22;4375;52.486;13.424;2023-02-16T00:12:49;3.90;99.90
8676;DHT22;4375;52.486;13.424;2023-02-16T00:15:34;3.90;99.90
8676;DHT22;4375;52.486;13.424;2023-02-16T00:18:00;4.00;99.90
8676;DHT22;4375;52.486;13.424;2023-02-16T00:20:28;3.80;99.90
8676;DHT22;4375;52.486;13.424;2023-02-16T00:22:55;3.80;99.90
8676;DHT22;4375;52.486;13.424;2023-02-16T00:25:20;3.70;99.90
8676;DHT22;4375;52.486;13.424;2023-02-16T00:27:46;3.70;99.90
8676;DHT22;4375;52.486;13.424;2023-02-16T00:30:16;3.80;99.90
8676;DHT22;4375;52.486;13.424;2023-02-16T00:32:42;3.70;99.90
8676;DHT22;4375;52.486;13.424;2023-02-16T00:35:18;3.70;99.90
8676;DHT22;4375;52.486;13.424;2023-02-16T00:37:45;3.70;99.90
8676;DHT22;4375;52.486;13.424;2023-02-16T00:40:15;3.70;99.90
8676;DHT22;4375;52.486;13.424;2023-02-16T00:42:44;3.70;99.90
8676;DHT22;4375;52.486;13.424;2023-02-16T00:45:16;3.70;99.90
8676;DHT22;4375;52.486;13.424;2023-02-16T00:47:46;3.70;99.90
8676;DHT22;4375;52.486;13.424;2023-02-16T00:50:38;3.70;99.90
8676;DHT22;4375;52.486;13.424;2023-02-16T00:53:03;3.70;99.90
8676;DHT22;4375;52.486;13.424;2023-02-16T00:55:34;3.70;99.90
8676;DHT22;4375;52.486;13.424;2023-02-16T00:58:25;3.70;99.90
8676;DHT22;4375;52.486;13.424;2023-02-16T01:00:54;3.80;99.90
8676;DHT22;4375;52.486;13.424;2023-02-16T01:03:23;3.80;99.90
8676;DHT22;4375;52.486;13.424;2023-02-16T01:05:49;3.70;99.90
8676;DHT22;4375;52.486;13.424;2023-02-16T01:08:35;3.70;99.90
8676;DHT22;4375;52.486;13.424;2023-02-16T01:11:19;3.60;99.90
8676;DHT22;4375;52.486;13.424;2023-02-16T01:13:49;3.50;99.90
8676;DHT22;4375;52.486;13.424;2023-02-16T01:18:44;3.50;99.90
8676;DHT22;4375;52.486;13.424;2023-02-16T01:21:10;3.60;99.90
8676;DHT22;4375;52.486;13.424;2023-02-16T01:23:37;3.70;99.90
8676;DHT22;4375;52.486;13.424;2023-02-16T01:26:04;3.60;99.90
8676;DHT22;4375;52.486;13.424;2023-02-16T01:28:33;3.60;99.90
8676;DHT22;4375;52.486;13.424;2023-02-16T01:31:00;3.60;99.90
8676;DHT22;4375;52.486;13.424;2023-02-16T01:33:26;3.50;99.90
8676;DHT22;4375;52.486;13.424;2023-02-16T01:35:54;3.40;99.90
8676;DHT22;4375;52.486;13.424;2023-02-16T01:38:22;3.50;99.90
8676;DHT22;4375;52.486;13.424;2023-02-16T01:41:03;3.60;99.90
8676;DHT22;4375;52.486;13.424;2023-02-16T01:43:46;3.50;99.90
8676;DHT22;4375;52.486;13.424;2023-02-16T01:46:47;3.50;99.90
8676;DHT22;4375;52.486;13.424;2023-02-16T01:49:15;3.40;99.90
8676;DHT22;4375;52.486;13.424;2023-02-16T01:52:35;3.40;99.90
8676;DHT22;4375;52.486;13.424;2023-02-16T01:54:39;3.30;99.90
8676;DHT22;4375;52.486;13.424;2023-02-16T02:02:56;3.20;99.90
8676;DHT22;4375;52.486;13.424;2023-02-16T02:05:42;3.10;99.90
8676;DHT22;4375;52.486;13.424;2023-02-16T02:11:14;3.20;99.90
8676;DHT22;4375;52.486;13.424;2023-02-16T02:13:50;3.20;99.90
8676;DHT22;4375;52.486;13.424;2023-02-16T02:16:19;3.20;99.90
8676;DHT22;4375;52.486;13.424;2023-02-16T02:18:46;3.00;99.90
8676;DHT22;4375;52.486;13.424;2023-02-16T02:35:45;2.80;99.90
8676;DHT22;4375;52.486;13.424;2023-02-16T02:38:20;2.80;99.90
8676;DHT22;4375;52.486;13.424;2023-02-16T02:41:29;2.80;99.90
8676;DHT22;4375;52.486;13.424;2023-02-16T02:44:20;2.90;99.90
8676;DHT22;4375;52.486;13.424;2023-02-16T02:46:47;2.90;99.90
8676;DHT22;4375;52.486;13.424;2023-02-16T02:49:13;2.90;99.90
8676;DHT22;4375;52.486;13.424;2023-02-16T02:51:39;2.90;99.90
8676;DHT22;4375;52.486;13.424;2023-02-16T02:54:24;2.90;99.90
8676;DHT22;4375;52.486;13.424;2023-02-16T02:57:20;2.90;99.90
8676;DHT22;4375;52.486;13.424;2023-02-16T03:00:12;2.90;99.90
8676;DHT22;4375;52.486;13.424;2023-02-16T03:03:02;3.00;99.90
8676;DHT22;4375;52.486;13.424;2023-02-16T03:05:30;3.00;99.90
8676;DHT22;4375;52.486;13.424;2023-02-16T03:08:02;3.00;99.90
8676;DHT22;4375;52.486;13.424;2023-02-16T03:10:47;2.90;99.90
8676;DHT22;4375;52.486;13.424;2023-02-16T03:13:48;2.90;99.90
8676;DHT22;4375;52.486;13.424;2023-02-16T03:16:22;2.80;99.90
8676;DHT22;4375;52.486;13.424;2023-02-16T03:18:51;2.80;99.90
8676;DHT22;4375;52.486;13.424;2023-02-16T03:21:35;2.90;99.90
8676;DHT22;4375;52.486;13.424;2023-02-16T03:24:27;2.90;99.90
8676;DHT22;4375;52.486;13.424;2023-02-16T03:27:14;2.90;99.90
8676;DHT22;4375;52.486;13.424;2023-02-16T03:30:01;2.80;99.90
8676;DHT22;4375;52.486;13.424;2023-02-16T03:32:29;2.90;99.90
8676;DHT22;4375;52.486;13.424;2023-02-16T03:34:55;2.90;99.90
8676;DHT22;4375;52.486;13.424;2023-02-16T03:37:20;2.90;99.90
8676;DHT22;4375;52.486;13.424;2023-02-16T03:39:46;3.00;99.90
8676;DHT22;4375;52.486;13.424;2023-02-16T03:42:31;3.00;99.90
8676;DHT22;4375;52.486;13.424;2023-02-16T03:44:57;3.00;99.90
8676;DHT22;4375;52.486;13.424;2023-02-16T03:47:22;3.00;99.90
8676;DHT22;4375;52.486;13.424;2023-02-16T03:49:48;3.00;99.90
8676;DHT22;4375;52.486;13.424;2023-02-16T03:52:14;3.00;99.90
8676;DHT22;4375;52.486;13.424;2023-02-16T03:54:39;2.90;99.90
8676;DHT22;4375;52.486;13.424;2023-02-16T03:57:05;3.00;99.90
8676;DHT22;4375;52.486;13.424;2023-02-16T03:59:30;2.90;99.90
8676;DHT22;4375;52.486;13.424;2023-02-16T04:01:56;2.90;99.90
8676;DHT22;4375;52.486;13.424;2023-02-16T04:04:22;2.90;99.90
8676;DHT22;4375;52.486;13.424;2023-02-16T04:06:47;2.90;99.90
8676;DHT22;4375;52.486;13.424;2023-02-16T04:09:13;2.90;99.90
8676;DHT22;4375;52.486;13.424;2023-02-16T04:11:38;3.00;99.90
8676;DHT22;4375;52.486;13.424;2023-02-16T04:14:22;2.90;99.90
8676;DHT22;4375;52.486;13.424;2023-02-16T04:16:48;3.00;99.90
8676;DHT22;4375;52.486;13.424;2023-02-16T04:19:14;3.00;99.90
8676;DHT22;4375;52.486;13.424;2023-02-16T04:21:39;2.90;99.90
8676;DHT22;4375;52.486;13.424;2023-02-16T04:24:05;2.90;99.90
8676;DHT22;4375;52.486;13.424;2023-02-16T04:26:31;2.80;99.90
8676;DHT22;4375;52.486;13.424;2023-02-16T04:28:57;2.80;99.90
8676;DHT22;4375;52.486;13.424;2023-02-16T04:31:23;2.70;99.90
8676;DHT22;4375;52.486;13.424;2023-02-16T04:33:48;2.60;99.90
8676;DHT22;4375;52.486;13.424;2023-02-16T04:36:14;2.60;99.90
8676;DHT22;4375;52.486;13.424;2023-02-16T04:38:40;2.60;99.90
8676;DHT22;4375;52.486;13.424;2023-02-16T04:41:05;2.60;99.90
8676;DHT22;4375;52.486;13.424;2023-02-16T04:43:31;2.70;99.90
8676;DHT22;4375;52.486;13.424;2023-02-16T04:45:57;2.50;99.90
8676;DHT22;4375;52.486;13.424;2023-02-16T04:48:23;2.60;99.90
8676;DHT22;4375;52.486;13.424;2023-02-16T04:50:49;2.40;99.90
8676;DHT22;4375;52.486;13.424;2023-02-16T04:53:15;2.50;99.90
8676;DHT22;4375;52.486;13.424;2023-02-16T04:55:45;2.40;99.90
8676;DHT22;4375;52.486;13.424;2023-02-16T04:58:11;2.50;99.90
8676;DHT22;4375;52.486;13.424;2023-02-16T05:00:36;2.50;99.90
8676;DHT22;4375;52.486;13.424;2023-02-16T05:03:02;2.50;99.90
8676;DHT22;4375;52.486;13.424;2023-02-16T05:05:28;2.60;99.90
8676;DHT22;4375;52.486;13.424;2023-02-16T05:07:53;2.50;99.90
8676;DHT22;4375;52.486;13.424;2023-02-16T05:10:19;2.50;99.90
8676;DHT22;4375;52.486;13.424;2023-02-16T05:12:45;2.50;99.90
8676;DHT22;4375;52.486;13.424;2023-02-16T05:15:29;2.40;99.90
8676;DHT22;4375;52.486;13.424;2023-02-16T05:17:55;2.40;99.90
8676;DHT22;4375;52.486;13.424;2023-02-16T05:20:20;2.50;99.90
8676;DHT22;4375;52.486;13.424;2023-02-16T05:23:06;2.40;99.90
8676;DHT22;4375;52.486;13.424;2023-02-16T05:25:35;2.40;99.90
8676;DHT22;4375;52.486;13.424;2023-02-16T05:28:00;2.40;99.90
8676;DHT22;4375;52.486;13.424;2023-02-16T05:30:26;2.40;99.90
8676;DHT22;4375;52.486;13.424;2023-02-16T05:32:51;2.40;99.90
8676;DHT22;4375;52.486;13.424;2023-02-16T05:35:18;2.40;99.90
8676;DHT22;4375;52.486;13.424;2023-02-16T05:37:44;2.30;99.90
8676;DHT22;4375;52.486;13.424;2023-02-16T05:40:10;2.50;99.90
8676;DHT22;4375;52.486;13.424;2023-02-16T05:42:35;2.40;99.90
8676;DHT22;4375;52.486;13.424;2023-02-16T05:45:01;2.40;99.90
8676;DHT22;4375;52.486;13.424;2023-02-16T05:47:27;2.30;99.90
8676;DHT22;4375;52.486;13.424;2023-02-16T05:49:53;2.30;99.90
8676;DHT22;4375;52.486;13.424;2023-02-16T05:52:19;2.30;99.90
8676;DHT22;4375;52.486;13.424;2023-02-16T05:54:44;2.30;99.90
8676;DHT22;4375;52.486;13.424;2023-02-16T05:57:10;2.30;99.90
8676;DHT22;4375;52.486;13.424;2023-02-16T05:59:36;2.40;99.90
8676;DHT22;4375;52.486;13.424;2023-02-16T06:02:01;2.40;99.90
8676;DHT22;4375;52.486;13.424;2023-02-16T06:04:27;2.40;99.90
8676;DHT22;4375;52.486;13.424;2023-02-16T06:06:53;2.30;99.90
8676;DHT22;4375;52.486;13.424;2023-02-16T06:09:19;2.20;99.90
8676;DHT22;4375;52.486;13.424;2023-02-16T06:11:45;2.20;99.90
8676;DHT22;4375;52.486;13.424;2023-02-16T06:14:18;2.20;99.90
8676;DHT22;4375;52.486;13.424;2023-02-16T06:16:47;2.30;99.90
8676;DHT22;4375;52.486;13.424;2023-02-16T06:19:14;2.20;99.90
8676;DHT22;4375;52.486;13.424;2023-02-16T06:21:40;2.30;99.90
8676;DHT22;4375;52.486;13.424;2023-02-16T06:24:07;2.20;99.90
8676;DHT22;4375;52.486;13.424;2023-02-16T06:26:33;2.20;99.90
8676;DHT22;4375;52.486;13.424;2023-02-16T06:28:59;2.20;99.90
8676;DHT22;4375;52.486;13.424;2023-02-16T06:31:25;2.20;99.90
8676;DHT22;4375;52.486;13.424;2023-02-16T06:33:52;2.20;99.90
8676;DHT22;4375;52.486;13.424;2023-02-16T06:36:18;2.20;99.90
8676;DHT22;4375;52.486;13.424;2023-02-16T06:38:44;2.20;99.90
8676;DHT22;4375;52.486;13.424;2023-02-16T06:41:10;2.10;99.90
8676;DHT22;4375;52.486;13.424;2023-02-16T06:43:36;2.10;99.90
8676;DHT22;4375;52.486;13.424;2023-02-16T06:46:02;2.20;99.90
8676;DHT22;4375;52.486;13.424;2023-02-16T06:48:28;2.20;99.90
8676;DHT22;4375;52.486;13.424;2023-02-16T06:50:53;2.20;99.90
8676;DHT22;4375;52.486;13.424;2023-02-16T06:53:19;2.30;99.90
8676;DHT22;4375;52.486;13.424;2023-02-16T06:55:45;2.30;99.90
8676;DHT22;4375;52.486;13.424;2023-02-16T06:58:11;2.30;99.90
8676;DHT22;4375;52.486;13.424;2023-02-16T07:00:37;2.30;99.90
8676;DHT22;4375;52.486;13.424;2023-02-16T07:03:02;2.40;99.90
8676;DHT22;4375;52.486;13.424;2023-02-16T07:05:28;2.40;99.90
8676;DHT22;4375;52.486;13.424;2023-02-16T07:07:54;2.50;99.90
8676;DHT22;4375;52.486;13.424;2023-02-16T07:10:20;2.70;99.90
8676;DHT22;4375;52.486;13.424;2023-02-16T07:12:46;2.70;99.90
8676;DHT22;4375;52.486;13.424;2023-02-16T07:15:12;2.60;99.90
8676;DHT22;4375;52.486;13.424;2023-02-16T07:17:38;2.60;99.90
8676;DHT22;4375;52.486;13.424;2023-02-16T07:20:04;2.60;99.90
8676;DHT22;4375;52.486;13.424;2023-02-16T07:22:31;2.60;99.90
8676;DHT22;4375;52.486;13.424;2023-02-16T07:24:56;2.70;99.90
8676;DHT22;4375;52.486;13.424;2023-02-16T07:27:24;2.70;99.90
8676;DHT22;4375;52.486;13.424;2023-02-16T07:29:50;2.80;99.90
8676;DHT22;4375;52.486;13.424;2023-02-16T07:32:15;2.80;99.90
8676;DHT22;4375;52.486;13.424;2023-02-16T07:34:41;2.90;99.90
8676;DHT22;4375;52.486;13.424;2023-02-16T07:37:06;2.80;99.90
8676;DHT22;4375;52.486;13.424;2023-02-16T07:39:32;2.90;99.90
8676;DHT22;4375;52.486;13.424;2023-02-16T07:41:58;2.90;99.90
8676;DHT22;4375;52.486;13.424;2023-02-16T07:44:24;2.90;99.90
8676;DHT22;4375;52.486;13.424;2023-02-16T07:46:49;2.90;99.90
8676;DHT22;4375;52.486;13.424;2023-02-16T07:49:15;2.90;99.90
8676;DHT22;4375;52.486;13.424;2023-02-16T07:51:41;3.00;99.90
8676;DHT22;4375;52.486;13.424;2023-02-16T07:54:06;3.00;99.90
8676;DHT22;4375;52.486;13.424;2023-02-16T07:56:33;3.00;99.90
8676;DHT22;4375;52.486;13.424;2023-02-16T07:59:00;3.10;99.90
8676;DHT22;4375;52.486;13.424;2023-02-16T08:01:27;3.20;99.90
8676;DHT22;4375;52.486;13.424;2023-02-16T08:03:54;3.20;99.90
8676;DHT22;4375;52.486;13.424;2023-02-16T08:06:20;3.30;99.90
8676;DHT22;4375;52.486;13.424;2023-02-16T08:08:46;3.40;99.90
8676;DHT22;4375;52.486;13.424;2023-02-16T08:11:21;3.50;99.90
8676;DHT22;4375;52.486;13.424;2023-02-16T08:13:48;3.60;99.90
8676;DHT22;4375;52.486;13.424;2023-02-16T08:16:18;3.60;99.90
8676;DHT22;4375;52.486;13.424;2023-02-16T08:18:45;3.70;99.90
8676;DHT22;4375;52.486;13.424;2023-02-16T08:21:13;3.80;99.90
8676;DHT22;4375;52.486;13.424;2023-02-16T08:23:56;3.80;99.90
8676;DHT22;4375;52.486;13.424;2023-02-16T08:26:26;3.80;99.90
8676;DHT22;4375;52.486;13.424;2023-02-16T08:28:55;3.80;99.90
8676;DHT22;4375;52.486;13.424;2023-02-16T08:31:23;3.90;99.90
8676;DHT22;4375;52.486;13.424;2023-02-16T08:33:50;3.90;99.90
8676;DHT22;4375;52.486;13.424;2023-02-16T08:36:25;4.00;99.90
8676;DHT22;4375;52.486;13.424;2023-02-16T08:38:52;4.00;99.90
8676;DHT22;4375;52.486;13.424;2023-02-16T08:41:23;4.10;99.90
8676;DHT22;4375;52.486;13.424;2023-02-16T08:43:50;4.20;99.90
8676;DHT22;4375;52.486;13.424;2023-02-16T08:46:16;4.30;99.90
8676;DHT22;4375;52.486;13.424;2023-02-16T08:48:42;4.30;99.90
8676;DHT22;4375;52.486;13.424;2023-02-16T08:51:13;4.40;99.90
8676;DHT22;4375;52.486;13.424;2023-02-16T08:53:39;4.50;99.90
8676;DHT22;4375;52.486;13.424;2023-02-16T08:56:05;5.10;99.90
8676;DHT22;4375;52.486;13.424;2023-02-16T08:58:31;5.90;99.90
8676;DHT22;4375;52.486;13.424;2023-02-16T09:00:57;6.60;99.90
8676;DHT22;4375;52.486;13.424;2023-02-16T09:03:27;6.80;99.90
8676;DHT22;4375;52.486;13.424;2023-02-16T09:05:53;6.70;99.90
8676;DHT22;4375;52.486;13.424;2023-02-16T09:08:20;6.70;99.90
8676;DHT22;4375;52.486;13.424;2023-02-16T09:10:46;6.60;99.90
8676;DHT22;4375;52.486;13.424;2023-02-16T09:13:11;6.60;99.90
8676;DHT22;4375;52.486;13.424;2023-02-16T09:15:41;6.50;99.90
8676;DHT22;4375;52.486;13.424;2023-02-16T09:18:08;6.50;99.90
8676;DHT22;4375;52.486;13.424;2023-02-16T09:20:38;6.60;99.90
8676;DHT22;4375;52.486;13.424;2023-02-16T09:23:05;6.60;99.90
8676;DHT22;4375;52.486;13.424;2023-02-16T09:25:35;6.60;99.90
8676;DHT22;4375;52.486;13.424;2023-02-16T09:28:02;6.80;99.90
8676;DHT22;4375;52.486;13.424;2023-02-16T09:30:28;6.80;99.90
8676;DHT22;4375;52.486;13.424;2023-02-16T09:32:53;7.00;99.90
8676;DHT22;4375;52.486;13.424;2023-02-16T09:35:20;7.10;99.90
8676;DHT22;4375;52.486;13.424;2023-02-16T09:37:46;7.30;99.90
8676;DHT22;4375;52.486;13.424;2023-02-16T09:40:12;7.30;99.90
8676;DHT22;4375;52.486;13.424;2023-02-16T09:42:54;7.50;99.90
8676;DHT22;4375;52.486;13.424;2023-02-16T09:45:22;7.60;99.90
8676;DHT22;4375;52.486;13.424;2023-02-16T09:47:50;7.60;99.90
8676;DHT22;4375;52.486;13.424;2023-02-16T09:55:19;8.10;99.90
8676;DHT22;4375;52.486;13.424;2023-02-16T10:08:28;8.50;99.90
8676;DHT22;4375;52.486;13.424;2023-02-16T10:11:07;8.60;99.90
8676;DHT22;4375;52.486;13.424;2023-02-16T10:13:57;8.60;99.90
8676;DHT22;4375;52.486;13.424;2023-02-16T10:16:32;8.80;99.90
8676;DHT22;4375;52.486;13.424;2023-02-16T10:19:00;8.80;99.90
8676;DHT22;4375;52.486;13.424;2023-02-16T10:21:31;8.90;99.90
8676;DHT22;4375;52.486;13.424;2023-02-16T10:24:02;9.00;99.90
8676;DHT22;4375;52.486;13.424;2023-02-16T10:26:36;9.00;99.90
8676;DHT22;4375;52.486;13.424;2023-02-16T10:29:22;9.20;99.90
8676;DHT22;4375;52.486;13.424;2023-02-16T10:34:46;9.20;99.90
8676;DHT22;4375;52.486;13.424;2023-02-16T10:40:35;9.30;99.90
8676;DHT22;4375;52.486;13.424;2023-02-16T10:45:56;9.20;99.90
8676;DHT22;4375;52.486;13.424;2023-02-16T10:48:29;9.20;99.90
8676;DHT22;4375;52.486;13.424;2023-02-16T10:51:02;9.10;99.90
8676;DHT22;4375;52.486;13.424;2023-02-16T10:55:56;9.20;99.90
8676;DHT22;4375;52.486;13.424;2023-02-16T10:58:25;9.20;99.90
8676;DHT22;4375;52.486;13.424;2023-02-16T11:01:06;9.30;99.90
8676;DHT22;4375;52.486;13.424;2023-02-16T11:03:43;9.30;99.90
8676;DHT22;4375;52.486;13.424;2023-02-16T11:06:27;9.40;99.90
8676;DHT22;4375;52.486;13.424;2023-02-16T11:08:58;9.50;99.90
8676;DHT22;4375;52.486;13.424;2023-02-16T11:11:43;9.50;99.90
8676;DHT22;4375;52.486;13.424;2023-02-16T11:14:21;9.60;99.90
8676;DHT22;4375;52.486;13.424;2023-02-16T11:16:49;9.50;99.90
8676;DHT22;4375;52.486;13.424;2023-02-16T11:19:26;9.60;99.90
8676;DHT22;4375;52.486;13.424;2023-02-16T11:21:54;9.70;99.90
8676;DHT22;4375;52.486;13.424;2023-02-16T11:24:41;9.70;99.90
8676;DHT22;4375;52.486;13.424;2023-02-16T11:27:14;9.80;99.90
8676;DHT22;4375;52.486;13.424;2023-02-16T11:29:41;9.80;99.90
8676;DHT22;4375;52.486;13.424;2023-02-16T11:32:09;9.70;99.90
8676;DHT22;4375;52.486;13.424;2023-02-16T11:40:36;9.80;99.90
8676;DHT22;4375;52.486;13.424;2023-02-16T11:42:48;9.80;99.90
8676;DHT22;4375;52.486;13.424;2023-02-16T11:45:31;9.90;99.90
8676;DHT22;4375;52.486;13.424;2023-02-16T11:48:07;10.00;99.90
8676;DHT22;4375;52.486;13.424;2023-02-16T11:50:37;10.00;99.90
8676;DHT22;4375;52.486;13.424;2023-02-16T11:55:47;10.10;99.90
8676;DHT22;4375;52.486;13.424;2023-02-16T12:00:42;10.20;99.90
8676;DHT22;4375;52.486;13.424;2023-02-16T12:03:20;10.30;99.90
8676;DHT22;4375;52.486;13.424;2023-02-16T12:09:02;10.40;99.90
8676;DHT22;4375;52.486;13.424;2023-02-16T12:14:58;10.50;99.90
8676;DHT22;4375;52.486;13.424;2023-02-16T12:23:30;10.70;99.90
8676;DHT22;4375;52.486;13.424;2023-02-16T12:28:54;10.70;99.90
8676;DHT22;4375;52.486;13.424;2023-02-16T12:31:31;10.70;99.90
8676;DHT22;4375;52.486;13.424;2023-02-16T12:37:00;10.80;99.90
8676;DHT22;4375;52.486;13.424;2023-02-16T12:39:47;10.80;99.90
8676;DHT22;4375;52.486;13.424;2023-02-16T12:45:27;10.90;99.90
8676;DHT22;4375;52.486;13.424;2023-02-16T12:47:57;11.00;99.90
8676;DHT22;4375;52.486;13.424;2023-02-16T12:50:27;11.00;99.90
8676;DHT22;4375;52.486;13.424;2023-02-16T12:55:46;11.40;99.90
8676;DHT22;4375;52.486;13.424;2023-02-16T12:58:17;11.30;99.90
8676;DHT22;4375;52.486;13.424;2023-02-16T13:05:50;11.10;99.90
8676;DHT22;4375;52.486;13.424;2023-02-16T13:08:32;11.10;99.90
8676;DHT22;4375;52.486;13.424;2023-02-16T13:11:13;11.00;99.90
8676;DHT22;4375;52.486;13.424;2023-02-16T13:13:42;11.10;99.90
8676;DHT22;4375;52.486;13.424;2023-02-16T13:16:40;11.10;99.90
8676;DHT22;4375;52.486;13.424;2023-02-16T13:19:02;11.00;99.90
8676;DHT22;4375;52.486;13.424;2023-02-16T13:24:39;11.10;99.90
8676;DHT22;4375;52.486;13.424;2023-02-16T13:43:34;11.40;99.90
8676;DHT22;4375;52.486;13.424;2023-02-16T13:46:06;11.40;99.90
8676;DHT22;4375;52.486;13.424;2023-02-16T13:48:47;11.50;99.90
8676;DHT22;4375;52.486;13.424;2023-02-16T13:51:22;11.40;99.90
8676;DHT22;4375;52.486;13.424;2023-02-16T13:53:54;11.40;99.90
8676;DHT22;4375;52.486;13.424;2023-02-16T13:56:36;11.40;99.90
8676;DHT22;4375;52.486;13.424;2023-02-16T14:01:49;11.30;99.90
8676;DHT22;4375;52.486;13.424;2023-02-16T14:20:11;11.20;99.90
8676;DHT22;4375;52.486;13.424;2023-02-16T14:22:51;11.30;99.90
8676;DHT22;4375;52.486;13.424;2023-02-16T14:27:54;11.40;99.90
8676;DHT22;4375;52.486;13.424;2023-02-16T14:35:34;11.60;99.90
8676;DHT22;4375;52.486;13.424;2023-02-16T14:38:00;11.70;99.90
8676;DHT22;4375;52.486;13.424;2023-02-16T14:40:50;11.70;99.90
8676;DHT22;4375;52.486;13.424;2023-02-16T14:43:40;11.70;99.90
8676;DHT22;4375;52.486;13.424;2023-02-16T14:57:14;11.70;99.90
8676;DHT22;4375;52.486;13.424;2023-02-16T14:59:54;11.80;99.90
8676;DHT22;4375;52.486;13.424;2023-02-16T15:02:32;11.70;99.90
8676;DHT22;4375;52.486;13.424;2023-02-16T15:05:14;11.70;99.90
8676;DHT22;4375;52.486;13.424;2023-02-16T15:07:42;11.60;99.90
8676;DHT22;4375;52.486;13.424;2023-02-16T15:10:13;11.60;99.90
8676;DHT22;4375;52.486;13.424;2023-02-16T15:12:39;11.60;99.90
8676;DHT22;4375;52.486;13.424;2023-02-16T15:15:06;11.60;99.90
8676;DHT22;4375;52.486;13.424;2023-02-16T15:17:53;11.60;99.90
8676;DHT22;4375;52.486;13.424;2023-02-16T15:22:54;11.70;99.90
8676;DHT22;4375;52.486;13.424;2023-02-16T15:25:32;11.60;99.90
8676;DHT22;4375;52.486;13.424;2023-02-16T15:28:00;11.60;99.90
8676;DHT22;4375;52.486;13.424;2023-02-16T15:30:33;11.60;99.90
8676;DHT22;4375;52.486;13.424;2023-02-16T15:33:02;11.60;99.90
8676;DHT22;4375;52.486;13.424;2023-02-16T15:35:34;11.60;99.90
8676;DHT22;4375;52.486;13.424;2023-02-16T15:38:53;11.60;99.90
8676;DHT22;4375;52.486;13.424;2023-02-16T15:41:04;11.60;99.90
8676;DHT22;4375;52.486;13.424;2023-02-16T15:43:50;11.50;99.90
8676;DHT22;4375;52.486;13.424;2023-02-16T15:46:32;11.50;99.90
8676;DHT22;4375;52.486;13.424;2023-02-16T15:49:09;11.40;99.90
8676;DHT22;4375;52.486;13.424;2023-02-16T15:51:35;11.40;99.90
8676;DHT22;4375;52.486;13.424;2023-02-16T15:54:28;11.30;99.90
8676;DHT22;4375;52.486;13.424;2023-02-16T15:57:24;11.30;99.90
8676;DHT22;4375;52.486;13.424;2023-02-16T15:59:55;11.20;99.90
8676;DHT22;4375;52.486;13.424;2023-02-16T16:02:32;11.20;99.90
8676;DHT22;4375;52.486;13.424;2023-02-16T16:05:01;11.20;99.90
8676;DHT22;4375;52.486;13.424;2023-02-16T16:07:31;11.10;99.90
8676;DHT22;4375;52.486;13.424;2023-02-16T16:09:59;11.00;99.90
8676;DHT22;4375;52.486;13.424;2023-02-16T16:12:25;10.90;99.90
8676;DHT22;4375;52.486;13.424;2023-02-16T16:14:57;10.90;99.90
8676;DHT22;4375;52.486;13.424;2023-02-16T16:17:32;10.80;99.90
8676;DHT22;4375;52.486;13.424;2023-02-16T16:20:23;10.80;99.90
8676;DHT22;4375;52.486;13.424;2023-02-16T16:25:43;10.70;99.90
8676;DHT22;4375;52.486;13.424;2023-02-16T16:28:13;10.60;99.90
8676;DHT22;4375;52.486;13.424;2023-02-16T16:30:40;10.50;99.90
8676;DHT22;4375;52.486;13.424;2023-02-16T16:33:14;10.40;99.90
8676;DHT22;4375;52.486;13.424;2023-02-16T16:35:43;10.40;99.90
8676;DHT22;4375;52.486;13.424;2023-02-16T16:38:26;10.40;99.90
8676;DHT22;4375;52.486;13.424;2023-02-16T16:40:56;10.40;99.90
8676;DHT22;4375;52.486;13.424;2023-02-16T16:43:29;10.30;99.90
8676;DHT22;4375;52.486;13.424;2023-02-16T16:46:11;10.30;99.90
8676;DHT22;4375;52.486;13.424;2023-02-16T16:48:45;10.20;99.90
8676;DHT22;4375;52.486;13.424;2023-02-16T16:51:38;10.20;99.90
8676;DHT22;4375;52.486;13.424;2023-02-16T16:54:31;10.20;99.90
8676;DHT22;4375;52.486;13.424;2023-02-16T16:56:56;10.10;99.90
8676;DHT22;4375;52.486;13.424;2023-02-16T16:59:22;10.10;99.90
8676;DHT22;4375;52.486;13.424;2023-02-16T17:01:48;10.00;99.90
8676;DHT22;4375;52.486;13.424;2023-02-16T17:04:15;10.00;99.90
8676;DHT22;4375;52.486;13.424;2023-02-16T17:06:41;9.90;99.90
8676;DHT22;4375;52.486;13.424;2023-02-16T17:09:06;9.80;99.90
8676;DHT22;4375;52.486;13.424;2023-02-16T17:11:34;9.80;99.90
8676;DHT22;4375;52.486;13.424;2023-02-16T17:14:20;9.80;99.90
8676;DHT22;4375;52.486;13.424;2023-02-16T17:16:49;9.80;99.90
8676;DHT22;4375;52.486;13.424;2023-02-16T17:19:17;9.80;99.90
8676;DHT22;4375;52.486;13.424;2023-02-16T17:21:44;9.90;99.90
8676;DHT22;4375;52.486;13.424;2023-02-16T17:24:10;9.90;99.90
8676;DHT22;4375;52.486;13.424;2023-02-16T17:26:37;10.00;99.90
8676;DHT22;4375;52.486;13.424;2023-02-16T17:29:03;10.00;99.90
8676;DHT22;4375;52.486;13.424;2023-02-16T17:31:29;10.00;99.90
8676;DHT22;4375;52.486;13.424;2023-02-16T17:33:54;10.10;99.90
8676;DHT22;4375;52.486;13.424;2023-02-16T17:36:21;10.10;99.90
8676;DHT22;4375;52.486;13.424;2023-02-16T17:38:49;10.10;99.90
8676;DHT22;4375;52.486;13.424;2023-02-16T17:41:25;10.00;99.90
8676;DHT22;4375;52.486;13.424;2023-02-16T17:43:51;10.00;99.90
8676;DHT22;4375;52.486;13.424;2023-02-16T17:46:18;10.00;99.90
8676;DHT22;4375;52.486;13.424;2023-02-16T17:48:49;10.00;99.90
8676;DHT22;4375;52.486;13.424;2023-02-16T17:51:17;9.90;99.90
8676;DHT22;4375;52.486;13.424;2023-02-16T17:53:44;9.90;99.90
8676;DHT22;4375;52.486;13.424;2023-02-16T17:56:11;9.90;99.90
8676;DHT22;4375;52.486;13.424;2023-02-16T17:58:37;9.90;99.90
8676;DHT22;4375;52.486;13.424;2023-02-16T18:01:04;9.90;99.90
8676;DHT22;4375;52.486;13.424;2023-02-16T18:03:29;9.80;99.90
8676;DHT22;4375;52.486;13.424;2023-02-16T18:05:55;9.80;99.90
8676;DHT22;4375;52.486;13.424;2023-02-16T18:08:21;9.90;99.90
8676;DHT22;4375;52.486;13.424;2023-02-16T18:10:49;9.90;99.90
8676;DHT22;4375;52.486;13.424;2023-02-16T18:13:15;9.80;99.90
8676;DHT22;4375;52.486;13.424;2023-02-16T18:15:43;9.80;99.90
8676;DHT22;4375;52.486;13.424;2023-02-16T18:18:15;9.80;99.90
8676;DHT22;4375;52.486;13.424;2023-02-16T18:20:42;9.80;99.90
8676;DHT22;4375;52.486;13.424;2023-02-16T18:23:08;9.80;99.90
8676;DHT22;4375;52.486;13.424;2023-02-16T18:25:35;9.80;99.90
8676;DHT22;4375;52.486;13.424;2023-02-16T18:28:00;9.80;99.90
8676;DHT22;4375;52.486;13.424;2023-02-16T18:30:26;9.80;99.90
8676;DHT22;4375;52.486;13.424;2023-02-16T18:32:52;9.80;99.90
8676;DHT22;4375;52.486;13.424;2023-02-16T18:35:18;9.80;99.90
8676;DHT22;4375;52.486;13.424;2023-02-16T18:37:45;9.70;99.90
8676;DHT22;4375;52.486;13.424;2023-02-16T18:40:13;9.70;99.90
8676;DHT22;4375;52.486;13.424;2023-02-16T18:42:40;9.70;99.90
8676;DHT22;4375;52.486;13.424;2023-02-16T18:45:06;9.70;99.90
8676;DHT22;4375;52.486;13.424;2023-02-16T18:47:32;9.70;99.90
8676;DHT22;4375;52.486;13.424;2023-02-16T18:49:58;9.70;99.90
8676;DHT22;4375;52.486;13.424;2023-02-16T18:52:24;9.60;99.90
8676;DHT22;4375;52.486;13.424;2023-02-16T18:54:49;9.60;99.90